Time;durP1;ratioP1;P1;durP2;ratioP2;P2;SDS_P1;SDS_P2;PMS_P1;PMS_P2;Temp;Humidity;BMP_temperature;BMP_pressure;BME280_temperature;BME280_humidity;BME280_pressure;Samples;Min_cycle;Max_cycle;Signal;HPM_P1;HPM_P2
2023/06/27 00:01:17;;;;;;;8.68;3.33;;;;;;;20.40;49.10;101898.16;5060052;28;20033;-74
2023/06/27 00:03:42;;;;;;;8.05;3.10;;;;;;;20.44;49.21;101901.22;5090242;28;20028;-74
2023/06/27 00:06:08;;;;;;;9.30;3.35;;;;;;;20.47;49.17;101897.78;5090269;28;20028;-74
2023/06/27 00:08:33;;;;;;;8.25;3.08;;;;;;;20.40;49.44;101892.50;5055261;28;20471;-74
2023/06/27 00:10:59;;;;;;;7.13;3.00;;;;;;;20.39;49.41;101890.81;5075333;28;20452;-74
2023/06/27 00:13:24;;;;;;;10.05;3.30;;;;;;;20.47;49.03;101894.97;5088144;28;20436;-75
2023/06/27 00:15:52;;;;;;;9.70;3.33;;;;;;;20.41;49.31;101893.34;5070601;28;20124;-74
2023/06/27 00:18:23;;;;;;;8.93;2.97;;;;;;;20.41;49.47;101894.19;5061661;28;20079;-75
2023/06/27 00:20:49;;;;;;;9.23;3.58;;;;;;;20.34;49.24;101888.88;5080255;28;20052;-74
2023/06/27 00:23:24;;;;;;;6.50;3.00;;;;;;;20.29;49.37;101890.91;5058366;28;20079;-74
2023/06/27 00:25:50;;;;;;;9.43;3.35;;;;;;;20.30;49.43;101890.59;5082345;28;20092;-74
2023/06/27 00:28:15;;;;;;;7.60;3.42;;;;;;;20.23;49.65;101887.25;5073798;28;20553;-74
2023/06/27 00:30:41;;;;;;;9.43;3.35;;;;;;;20.16;49.80;101898.03;5082375;28;20534;-73
2023/06/27 00:33:09;;;;;;;8.35;2.97;;;;;;;20.04;50.25;101895.59;5074689;28;20400;-74
2023/06/27 00:35:37;;;;;;;11.43;3.90;;;;;;;20.11;50.07;101889.59;5071223;28;20033;-74
2023/06/27 00:38:02;;;;;;;9.40;3.22;;;;;;;20.09;50.16;101891.88;5069284;28;20037;-75
2023/06/27 00:40:28;;;;;;;10.27;3.60;;;;;;;20.07;50.02;101889.34;5063953;28;20098;-74
2023/06/27 00:42:53;;;;;;;10.90;3.42;;;;;;;20.09;49.88;101892.72;5070241;28;20028;-74
2023/06/27 00:45:20;;;;;;;11.25;3.70;;;;;;;20.11;50.32;101883.97;5069991;28;20809;-74
2023/06/27 00:47:45;;;;;;;4.97;3.30;;;;;;;19.97;50.20;101889.44;5072511;28;20039;-74
2023/06/27 00:50:11;;;;;;;8.98;3.13;;;;;;;19.96;50.33;101889.69;5068900;28;20029;-74
2023/06/27 00:52:38;;;;;;;8.13;3.33;;;;;;;20.02;50.22;101891.38;5061185;28;20037;-74
2023/06/27 00:55:04;;;;;;;10.25;3.80;;;;;;;19.96;50.51;101889.69;5069360;28;21942;-74
2023/06/27 00:57:30;;;;;;;8.77;3.50;;;;;;;19.90;50.76;101893.69;5064967;28;20044;-75
2023/06/27 00:59:56;;;;;;;9.00;3.60;;;;;;;20.03;50.14;101891.06;5069925;28;20571;-74
2023/06/27 01:02:23;;;;;;;8.32;3.63;;;;;;;19.98;50.29;101898.72;5068997;28;20040;-74
2023/06/27 01:04:50;;;;;;;7.82;3.47;;;;;;;19.98;50.16;101898.72;5084182;28;20039;-74
2023/06/27 01:07:26;;;;;;;10.93;3.15;;;;;;;19.91;50.53;101901.84;5079342;28;20395;-74
2023/06/27 01:09:58;;;;;;;11.80;3.53;;;;;;;19.95;50.51;101896.47;5056837;28;20040;-74
2023/06/27 01:12:35;;;;;;;11.90;3.55;;;;;;;19.86;50.75;101905.53;5066000;28;20028;-74
2023/06/27 01:15:03;;;;;;;9.50;3.42;;;;;;;19.92;50.75;101899.88;5083627;28;20108;-74
2023/06/27 01:17:28;;;;;;;11.98;3.47;;;;;;;19.89;50.76;101900.47;5067235;28;20029;-74
2023/06/27 01:19:55;;;;;;;7.38;3.42;;;;;;;19.89;50.66;101890.03;5050418;28;20041;-75
2023/06/27 01:22:32;;;;;;;10.20;3.75;;;;;;;19.81;50.75;101893.47;5065890;28;20513;-74
2023/06/27 01:24:59;;;;;;;11.13;3.70;;;;;;;19.78;51.01;101902.50;5089002;28;20039;-74
2023/06/27 01:27:28;;;;;;;7.40;3.45;;;;;;;19.73;51.13;101896.88;5078741;28;20028;-74
2023/06/27 01:29:54;;;;;;;7.18;3.00;;;;;;;19.80;50.92;101903.03;5057783;28;20040;-74
2023/06/27 01:32:25;;;;;;;10.40;3.72;;;;;;;19.67;51.20;101896.06;5055109;28;20020;-74
2023/06/27 01:35:06;;;;;;;8.53;3.63;;;;;;;19.70;51.07;101892.69;5082573;28;20059;-75
2023/06/27 01:37:36;;;;;;;9.50;3.67;;;;;;;19.66;51.37;101894.38;5073145;28;20051;-74
2023/06/27 01:40:07;;;;;;;7.90;3.53;;;;;;;19.65;51.56;101901.16;5058760;28;20134;-74
2023/06/27 01:42:40;;;;;;;8.35;3.47;;;;;;;19.58;51.48;101897.78;5050357;28;20021;-74
2023/06/27 01:45:07;;;;;;;9.32;3.40;;;;;;;19.56;51.78;101894.38;5085633;28;20385;-74
2023/06/27 01:47:36;;;;;;;8.80;3.30;;;;;;;19.53;51.90;101903.41;5069133;28;20560;-74
2023/06/27 01:50:02;;;;;;;9.98;3.40;;;;;;;19.48;52.13;101895.84;5067315;28;20107;-74
2023/06/27 01:52:28;;;;;;;10.30;3.78;;;;;;;19.54;51.89;101893.84;5072040;28;20403;-74
2023/06/27 01:54:53;;;;;;;11.57;3.42;;;;;;;19.60;51.74;101890.72;5071143;28;20069;-74
2023/06/27 01:57:19;;;;;;;11.82;3.47;;;;;;;19.55;51.93;101892.72;5071989;28;20383;-74
2023/06/27 01:59:44;;;;;;;10.15;3.35;;;;;;;19.51;52.13;101897.25;5073479;28;20032;-74
2023/06/27 02:02:09;;;;;;;9.93;3.63;;;;;;;19.49;52.12;101897.53;5073512;28;20021;-74
2023/06/27 02:04:35;;;;;;;9.07;3.42;;;;;;;19.53;52.03;101892.16;5057014;28;20025;-74
2023/06/27 02:07:00;;;;;;;6.32;3.05;;;;;;;19.43;52.31;101887.41;5091336;28;20031;-74
2023/06/27 02:09:25;;;;;;;12.45;3.50;;;;;;;19.47;52.29;101882.91;5071356;28;20036;-75
2023/06/27 02:11:51;;;;;;;10.65;3.78;;;;;;;19.52;52.24;101882.03;5091774;28;20043;-74
2023/06/27 02:14:16;;;;;;;9.20;3.60;;;;;;;19.54;52.17;101891.03;5093860;28;20055;-74
2023/06/27 02:16:41;;;;;;;7.75;3.45;;;;;;;19.48;52.33;101881.75;5091088;28;20556;-74
2023/06/27 02:19:07;;;;;;;8.32;3.13;;;;;;;19.48;52.17;101890.19;5071582;28;20091;-75
2023/06/27 02:21:32;;;;;;;8.05;3.38;;;;;;;19.44;52.65;101886.28;5068578;28;20090;-75
2023/06/27 02:23:58;;;;;;;10.52;3.47;;;;;;;19.41;52.53;101874.75;5054738;28;20032;-74
2023/06/27 02:26:23;;;;;;;9.23;3.70;;;;;;;19.41;52.53;101867.13;5052670;28;20028;-74
2023/06/27 02:28:48;;;;;;;7.65;3.42;;;;;;;19.40;52.49;101885.16;5079769;28;20078;-74
2023/06/27 02:31:14;;;;;;;6.93;2.97;;;;;;;19.40;52.82;101873.06;5092230;28;20127;-73
2023/06/27 02:33:39;;;;;;;8.30;3.70;;;;;;;19.29;52.87;101878.72;5083207;28;20048;-74
2023/06/27 02:36:05;;;;;;;9.00;3.15;;;;;;;19.35;52.74;101871.97;5056812;28;20070;-74
2023/06/27 02:38:30;;;;;;;14.68;3.15;;;;;;;19.31;52.99;101875.63;5064754;28;20029;-74
2023/06/27 02:40:56;;;;;;;8.07;3.40;;;;;;;19.37;52.75;101863.22;5072129;28;20135;-74
2023/06/27 02:43:21;;;;;;;8.38;2.97;;;;;;;19.32;53.19;101864.09;5070741;28;20024;-74
2023/06/27 02:45:46;;;;;;;10.05;3.58;;;;;;;19.33;53.06;101862.09;5070724;28;20464;-73
2023/06/27 02:48:12;;;;;;;7.10;3.47;;;;;;;19.31;53.20;101862.41;5071997;28;20035;-73
2023/06/27 02:50:37;;;;;;;6.65;3.10;;;;;;;19.28;53.14;101867.75;5070630;28;20063;-73
2023/06/27 02:53:02;;;;;;;10.30;3.60;;;;;;;19.21;53.43;101870.88;5071335;28;20121;-73
2023/06/27 02:55:28;;;;;;;10.15;3.78;;;;;;;19.24;53.33;101859.06;5068473;28;20028;-73
2023/06/27 02:57:53;;;;;;;5.70;2.80;;;;;;;19.25;53.61;101866.34;5069273;28;20476;-74
2023/06/27 03:00:18;;;;;;;8.18;3.80;;;;;;;19.14;53.75;101859.09;5057189;28;20041;-74
2023/06/27 03:02:43;;;;;;;11.15;3.83;;;;;;;19.18;53.70;101864.97;5072054;28;20086;-74
2023/06/27 03:05:09;;;;;;;12.75;3.30;;;;;;;19.14;53.72;101876.00;5069324;28;20115;-74
2023/06/27 03:07:34;;;;;;;9.43;3.45;;;;;;;19.09;54.04;101878.78;5071063;28;20028;-74
2023/06/27 03:09:59;;;;;;;12.10;3.50;;;;;;;19.14;53.61;101873.19;5070772;28;20090;-74
2023/06/27 03:12:25;;;;;;;10.32;3.35;;;;;;;19.10;53.83;101874.88;5087013;28;20476;-74
2023/06/27 03:14:50;;;;;;;11.18;3.90;;;;;;;19.02;54.24;101869.81;5074965;28;20034;-74
2023/06/27 03:17:16;;;;;;;8.65;3.25;;;;;;;19.05;54.02;101872.91;5075828;28;20016;-74
2023/06/27 03:19:41;;;;;;;11.55;3.80;;;;;;;18.97;54.45;101879.09;5091750;28;20020;-74
2023/06/27 03:22:06;;;;;;;14.32;3.75;;;;;;;18.99;54.38;101876.88;5074956;28;20029;-74
2023/06/27 03:24:32;;;;;;;10.05;3.78;;;;;;;19.01;54.46;101882.19;5071055;28;20017;-74
2023/06/27 03:26:57;;;;;;;8.93;3.55;;;;;;;18.98;54.63;101882.75;5056494;28;20806;-74
2023/06/27 03:29:23;;;;;;;8.85;3.38;;;;;;;19.02;54.54;101887.56;5051446;28;20032;-74
2023/06/27 03:31:48;;;;;;;7.82;3.67;;;;;;;19.01;54.63;101876.56;5056405;28;20036;-74
2023/06/27 03:34:13;;;;;;;10.55;4.03;;;;;;;19.03;54.87;101877.13;5070457;28;20036;-74
2023/06/27 03:36:39;;;;;;;7.72;3.58;;;;;;;19.00;54.69;101880.53;5067836;28;20035;-74
2023/06/27 03:39:04;;;;;;;14.05;3.88;;;;;;;19.02;54.46;101878.25;5071544;28;20115;-74
2023/06/27 03:41:30;;;;;;;12.88;3.88;;;;;;;18.93;54.77;101877.16;5071531;28;20384;-74
2023/06/27 03:43:55;;;;;;;13.27;3.42;;;;;;;18.92;55.04;101879.13;5069312;28;20107;-74
2023/06/27 03:46:20;;;;;;;13.57;3.42;;;;;;;18.85;55.06;101882.22;5070355;28;20170;-74
2023/06/27 03:48:47;;;;;;;9.82;3.45;;;;;;;18.83;55.30;101878.88;5065222;28;20071;-74
2023/06/27 03:51:12;;;;;;;9.65;3.22;;;;;;;18.80;55.27;101887.03;5066203;28;20025;-73
2023/06/27 03:53:37;;;;;;;11.30;3.80;;;;;;;18.77;55.57;101882.81;5069158;28;20043;-73
2023/06/27 03:56:03;;;;;;;11.77;4.60;;;;;;;18.81;55.49;101885.91;5057831;28;20087;-74
2023/06/27 03:58:29;;;;;;;13.10;3.63;;;;;;;18.79;55.46;101890.97;5050193;28;20086;-73
2023/06/27 04:00:54;;;;;;;10.30;3.78;;;;;;;18.74;55.66;101894.59;5051022;28;20071;-73
2023/06/27 04:03:20;;;;;;;12.45;3.65;;;;;;;18.69;55.79;101897.41;5079231;28;20396;-73
2023/06/27 04:05:45;;;;;;;13.13;4.10;;;;;;;18.81;55.64;101895.16;5061590;28;20032;-73
2023/06/27 04:08:11;;;;;;;9.75;3.70;;;;;;;18.69;56.13;101890.94;5076246;28;20031;-74
2023/06/27 04:10:37;;;;;;;13.88;4.35;;;;;;;18.64;56.30;101889.81;5091138;28;20400;-73
2023/06/27 04:13:02;;;;;;;11.63;3.83;;;;;;;18.61;56.39;101890.38;5073449;28;20173;-73
2023/06/27 04:15:28;;;;;;;13.68;3.80;;;;;;;18.62;56.38;101892.06;5085957;28;20135;-73
2023/06/27 04:17:53;;;;;;;8.98;3.45;;;;;;;18.59;56.54;101891.81;5090553;28;20040;-73
2023/06/27 04:20:18;;;;;;;12.48;3.95;;;;;;;18.62;56.39;101891.22;5066775;28;20124;-74
2023/06/27 04:22:44;;;;;;;9.32;3.53;;;;;;;18.57;56.67;101883.63;5077881;28;20396;-74
2023/06/27 04:25:11;;;;;;;13.43;3.70;;;;;;;18.59;56.21;101886.19;5053233;28;20615;-73
2023/06/27 04:27:39;;;;;;;9.80;3.42;;;;;;;18.51;56.97;101887.59;5050987;28;20442;-73
2023/06/27 04:30:05;;;;;;;10.65;3.80;;;;;;;18.55;56.79;101890.66;5050203;28;20024;-73
2023/06/27 04:32:33;;;;;;;14.30;3.97;;;;;;;18.49;57.04;101891.78;5061343;28;20461;-74
2023/06/27 04:34:58;;;;;;;10.27;3.83;;;;;;;18.45;57.00;101890.69;5050559;28;20029;-74
2023/06/27 04:37:23;;;;;;;11.30;3.95;;;;;;;18.52;56.77;101897.69;5050318;28;20040;-74
2023/06/27 04:39:49;;;;;;;11.48;4.35;;;;;;;18.46;56.94;101898.81;5049751;28;20150;-74
2023/06/27 04:42:15;;;;;;;10.57;4.03;;;;;;;18.51;57.00;101906.41;5069678;28;20032;-75
2023/06/27 04:44:40;;;;;;;12.73;3.97;;;;;;;18.53;56.94;101898.53;5069137;28;20545;-75
2023/06/27 04:47:05;;;;;;;13.15;4.30;;;;;;;18.43;57.30;101901.34;5062053;28;20032;-74
2023/06/27 04:49:31;;;;;;;8.82;3.88;;;;;;;18.45;57.40;101902.75;5058594;28;20032;-74
2023/06/27 04:51:56;;;;;;;12.43;4.13;;;;;;;18.44;57.34;101901.06;5054613;28;20082;-74
2023/06/27 04:54:22;;;;;;;12.50;4.13;;;;;;;18.50;57.13;101901.91;5058582;28;20098;-74
2023/06/27 04:56:47;;;;;;;15.05;4.10;;;;;;;18.41;57.37;101910.06;5064630;28;20115;-74
2023/06/27 04:59:12;;;;;;;13.02;4.30;;;;;;;18.37;57.44;101906.13;5049716;28;20047;-74
2023/06/27 05:01:37;;;;;;;10.40;4.63;;;;;;;18.37;57.76;101906.97;5058485;28;20506;-74
2023/06/27 05:04:06;;;;;;;11.98;4.50;;;;;;;18.44;57.58;101903.06;5051057;28;20041;-74
2023/06/27 05:06:34;;;;;;;10.98;4.40;;;;;;;18.47;57.51;101905.28;5062681;28;20025;-74
2023/06/27 05:09:01;;;;;;;13.45;4.03;;;;;;;18.44;57.50;101901.06;5057147;28;20536;-74
2023/06/27 05:11:27;;;;;;;13.73;4.07;;;;;;;18.49;57.69;101905.84;5060184;28;20021;-74
2023/06/27 05:13:53;;;;;;;10.57;4.07;;;;;;;18.49;57.93;101917.09;5058382;28;20499;-75
2023/06/27 05:16:19;;;;;;;9.40;3.88;;;;;;;18.54;57.76;101920.75;5064671;28;20549;-74
2023/06/27 05:18:44;;;;;;;7.75;3.17;;;;;;;18.78;58.38;101909.78;5066459;28;20178;-77
2023/06/27 05:21:10;;;;;;;5.72;2.38;;;;;;;19.02;58.17;101897.94;5069383;28;20119;-79
2023/06/27 05:23:36;;;;;;;9.32;3.45;;;;;;;19.09;57.48;101901.31;5060612;28;20404;-79
2023/06/27 05:26:01;;;;;;;5.63;2.80;;;;;;;19.28;57.31;101905.19;5066339;28;20024;-79
2023/06/27 05:28:26;;;;;;;6.93;3.20;;;;;;;19.38;58.13;101904.34;5064146;28;20036;-76
2023/06/27 05:30:52;;;;;;;7.32;2.90;;;;;;;19.50;57.10;101904.84;5056187;28;20036;-79
2023/06/27 05:33:17;;;;;;;14.07;3.97;;;;;;;19.50;56.66;101904.84;5073646;28;20480;-79
2023/06/27 05:35:48;;;;;;;8.10;3.05;;;;;;;19.62;56.70;101910.19;5059885;28;20806;-80
2023/06/27 05:38:13;;;;;;;6.30;3.08;;;;;;;19.75;56.93;101897.44;5074301;28;20051;-80
2023/06/27 05:40:39;;;;;;;8.25;3.20;;;;;;;19.92;56.74;101897.88;5073277;28;20460;-74
2023/06/27 05:43:04;;;;;;;9.85;3.22;;;;;;;20.01;56.34;101906.59;5062912;28;20052;-78
2023/06/27 05:45:29;;;;;;;10.02;3.92;;;;;;;19.93;56.20;101901.56;5064807;28;20052;-77
2023/06/27 05:47:55;;;;;;;9.63;3.70;;;;;;;20.08;56.63;101901.47;5076646;28;20032;-75
2023/06/27 05:50:21;;;;;;;10.50;3.72;;;;;;;20.23;56.86;101897.69;5064744;28;20090;-74
2023/06/27 05:52:46;;;;;;;8.90;3.42;;;;;;;20.29;55.80;101894.56;5063687;28;20503;-75
2023/06/27 05:55:11;;;;;;;11.32;3.28;;;;;;;20.41;55.96;101902.66;5067967;28;20060;-78
2023/06/27 05:57:36;;;;;;;7.90;3.22;;;;;;;20.48;55.66;101896.69;5067637;28;20496;-77
2023/06/27 06:00:03;;;;;;;10.45;3.38;;;;;;;20.57;55.66;101900.56;5068170;28;20095;-81
2023/06/27 06:02:28;;;;;;;16.60;4.80;;;;;;;20.45;55.78;101900.91;5067178;28;20032;-76
2023/06/27 06:04:54;;;;;;;9.25;4.10;;;;;;;20.54;55.49;101906.78;5051658;28;20082;-77
2023/06/27 06:07:20;;;;;;;11.25;3.95;;;;;;;20.63;55.52;101896.56;5054072;28;20033;-78
2023/06/27 06:09:45;;;;;;;10.63;3.88;;;;;;;20.73;55.12;101904.09;5067043;28;20143;-77
2023/06/27 06:12:10;;;;;;;10.18;3.40;;;;;;;20.86;55.25;101905.38;5059540;28;20029;-75
2023/06/27 06:14:36;;;;;;;12.32;4.43;;;;;;;20.84;55.33;101891.56;5072509;28;20024;-78
2023/06/27 06:17:01;;;;;;;11.68;3.72;;;;;;;20.87;54.99;101895.75;5067958;28;20417;-73
2023/06/27 06:19:26;;;;;;;12.07;3.80;;;;;;;20.93;54.63;101888.94;5071057;28;20036;-72
2023/06/27 06:21:52;;;;;;;11.50;4.10;;;;;;;21.05;54.93;101903.50;5068834;28;20032;-71
2023/06/27 06:24:23;;;;;;;9.63;4.20;;;;;;;21.07;54.53;101901.22;5071038;28;20036;-77
2023/06/27 06:26:48;;;;;;;9.77;3.30;;;;;;;21.20;55.02;101908.13;5070640;28;20054;-75
2023/06/27 06:29:13;;;;;;;13.95;4.38;;;;;;;21.20;54.52;101900.50;5086934;28;20122;-76
2023/06/27 06:31:40;;;;;;;10.65;4.05;;;;;;;21.23;54.60;101907.53;5063952;28;20020;-76
2023/06/27 06:34:05;;;;;;;11.25;3.90;;;;;;;21.35;54.52;101901.50;5061551;28;20052;-75
2023/06/27 06:36:32;;;;;;;11.73;3.58;;;;;;;21.42;54.35;101899.13;5068095;28;20123;-75
2023/06/27 06:38:58;;;;;;;11.20;3.83;;;;;;;21.49;54.19;101905.28;5077821;28;20060;-68
2023/06/27 06:41:24;;;;;;;13.65;4.30;;;;;;;21.47;54.20;101916.06;5076223;28;20036;-76
2023/06/27 06:43:49;;;;;;;14.32;4.40;;;;;;;21.47;54.34;101918.88;5071599;28;20048;-76
2023/06/27 06:46:14;;;;;;;10.18;3.42;;;;;;;21.61;54.23;101922.63;5069645;28;20033;-76
2023/06/27 06:48:40;;;;;;;9.35;3.40;;;;;;;21.72;53.85;101923.34;5060146;28;20029;-77
2023/06/27 06:51:05;;;;;;;9.95;4.32;;;;;;;21.70;54.03;101918.00;5052886;28;20107;-78
2023/06/27 06:53:30;;;;;;;10.07;3.40;;;;;;;21.80;53.53;101920.69;5075034;28;20051;-78
2023/06/27 06:55:56;;;;;;;10.18;3.83;;;;;;;21.78;53.67;101922.16;5092484;28;20070;-78
2023/06/27 06:58:21;;;;;;;9.77;3.60;;;;;;;21.89;53.35;101920.88;5091639;28;20103;-77
2023/06/27 07:00:46;;;;;;;9.18;3.80;;;;;;;21.92;53.16;101922.22;5089919;28;20024;-77
2023/06/27 07:03:11;;;;;;;12.18;3.88;;;;;;;21.92;53.39;101917.41;5072125;28;20037;-78
2023/06/27 07:05:38;;;;;;;12.48;4.28;;;;;;;21.94;53.67;101925.63;5074407;28;20017;-78
2023/06/27 07:08:04;;;;;;;11.25;4.15;;;;;;;22.02;53.40;101927.75;5073187;28;20085;-78
2023/06/27 07:10:30;;;;;;;10.05;3.17;;;;;;;22.12;52.73;101921.09;5061442;28;20072;-78
2023/06/27 07:12:56;;;;;;;11.25;3.97;;;;;;;22.16;53.08;101928.69;5071905;28;20035;-78
2023/06/27 07:15:23;;;;;;;10.07;4.93;;;;;;;22.13;53.08;101923.66;5072687;28;20365;-78
2023/06/27 07:17:52;;;;;;;11.77;3.05;;;;;;;22.27;52.56;101924.56;5074546;28;20025;-78
2023/06/27 07:20:19;;;;;;;10.07;3.75;;;;;;;22.33;52.73;101933.84;5074416;28;20043;-78
2023/06/27 07:22:45;;;;;;;10.98;4.03;;;;;;;22.39;52.24;101928.91;5073495;28;20025;-78
2023/06/27 07:25:10;;;;;;;10.60;3.10;;;;;;;22.47;51.78;101919.72;5065783;28;20104;-78
2023/06/27 07:27:36;;;;;;;9.45;3.80;;;;;;;22.47;51.72;101929.06;5051422;28;20025;-75
2023/06/27 07:30:01;;;;;;;12.13;3.88;;;;;;;22.42;51.67;101925.47;5060252;28;20036;-75
2023/06/27 07:32:27;;;;;;;11.20;3.58;;;;;;;22.47;51.46;101926.22;5051250;28;20025;-76
2023/06/27 07:34:52;;;;;;;11.63;3.65;;;;;;;22.59;51.33;101922.91;5064234;28;20526;-77
2023/06/27 07:37:17;;;;;;;13.25;3.10;;;;;;;22.66;51.28;101923.38;5071391;28;20044;-77
2023/06/27 07:39:43;;;;;;;11.85;3.20;;;;;;;22.67;49.81;101916.56;5070971;28;20047;-76
2023/06/27 07:42:08;;;;;;;10.35;3.53;;;;;;;22.69;50.18;101916.25;5069753;28;20060;-76
2023/06/27 07:44:34;;;;;;;7.93;2.65;;;;;;;22.61;49.49;101920.63;5066792;28;20482;-77
2023/06/27 07:46:59;;;;;;;8.15;2.72;;;;;;;22.60;50.14;101918.97;5063332;28;20036;-77
2023/06/27 07:49:25;;;;;;;8.10;3.00;;;;;;;22.52;50.13;101933.81;5070526;28;20024;-76
2023/06/27 07:51:51;;;;;;;7.38;2.78;;;;;;;22.56;50.38;101912.25;5070732;28;20048;-76
2023/06/27 07:54:17;;;;;;;9.88;2.53;;;;;;;22.47;49.01;101916.91;5069828;28;20391;-76
2023/06/27 07:56:42;;;;;;;5.68;2.50;;;;;;;22.36;48.27;101921.03;5069767;28;20031;-77
2023/06/27 07:59:08;;;;;;;7.20;2.53;;;;;;;22.36;49.41;101907.75;5070822;28;20032;-76
2023/06/27 08:01:34;;;;;;;6.82;2.70;;;;;;;22.38;49.34;101915.94;5070557;28;20028;-75
2023/06/27 08:03:59;;;;;;;6.55;2.22;;;;;;;22.39;49.49;101914.78;5067408;28;20400;-76
2023/06/27 08:06:25;;;;;;;7.97;2.80;;;;;;;22.43;49.18;101916.69;5052889;28;20033;-76
2023/06/27 08:08:50;;;;;;;6.85;2.40;;;;;;;22.50;48.88;101922.78;5070793;28;20027;-76
2023/06/27 08:11:16;;;;;;;5.45;2.15;;;;;;;22.50;48.43;101913.47;5070062;28;20020;-76
2023/06/27 08:13:41;;;;;;;6.93;1.75;;;;;;;22.51;48.69;101915.97;5070144;28;20095;-76
2023/06/27 08:16:08;;;;;;;5.85;2.17;;;;;;;22.49;47.72;101914.63;5069263;28;20288;-76
2023/06/27 08:18:34;;;;;;;8.15;2.75;;;;;;;22.48;48.10;101912.94;5067894;28;20053;-76
2023/06/27 08:20:59;;;;;;;8.07;2.30;;;;;;;22.47;47.50;101905.59;5070893;28;20608;-76
2023/06/27 08:23:24;;;;;;;4.93;1.80;;;;;;;22.50;47.24;101908.66;5057358;28;20111;-76
2023/06/27 08:25:50;;;;;;;10.38;2.22;;;;;;;22.60;47.57;101904.81;5049880;28;20040;-76
2023/06/27 08:28:15;;;;;;;5.20;2.03;;;;;;;22.61;46.12;101909.31;5069869;28;20111;-76
2023/06/27 08:30:41;;;;;;;3.92;1.58;;;;;;;22.65;46.05;101910.38;5071244;28;20032;-76
2023/06/27 08:33:06;;;;;;;5.32;1.60;;;;;;;22.64;45.52;101914.38;5069174;28;20391;-77
2023/06/27 08:35:34;;;;;;;6.50;2.00;;;;;;;22.66;46.08;101912.06;5070615;28;20626;-76
2023/06/27 08:37:59;;;;;;;9.10;2.00;;;;;;;22.66;46.02;101906.41;5072581;28;20044;-77
2023/06/27 08:40:26;;;;;;;7.82;1.95;;;;;;;22.59;44.60;101908.78;5072916;28;20070;-76
2023/06/27 08:42:51;;;;;;;4.68;1.75;;;;;;;22.61;45.50;101908.47;5069422;28;20032;-77
2023/06/27 08:45:17;;;;;;;6.65;1.60;;;;;;;22.55;44.64;101914.22;5064912;28;20036;-77
2023/06/27 08:47:45;;;;;;;10.25;2.60;;;;;;;22.52;44.91;101908.34;5064237;28;20032;-76
2023/06/27 08:50:13;;;;;;;7.07;1.95;;;;;;;22.57;46.13;101902.59;5069597;28;20036;-76
2023/06/27 08:52:50;;;;;;;5.75;1.80;;;;;;;22.54;45.08;101908.88;5064009;28;20024;-76
2023/06/27 08:55:28;;;;;;;5.20;1.92;;;;;;;22.69;45.96;101893.63;5065880;28;20036;-74
2023/06/27 08:57:57;;;;;;;7.00;1.85;;;;;;;22.65;45.82;101901.91;5060777;28;20032;-73
2023/06/27 09:00:26;;;;;;;3.88;1.50;;;;;;;22.68;45.86;101901.28;5060324;28;20070;-75
2023/06/27 09:02:52;;;;;;;5.90;1.67;;;;;;;22.75;46.29;101893.22;5064349;28;20020;-72
2023/06/27 09:05:18;;;;;;;5.35;1.90;;;;;;;22.67;45.98;101895.91;5066810;28;20024;-72
2023/06/27 09:07:44;;;;;;;3.95;1.50;;;;;;;22.64;45.84;101900.22;5068487;28;20104;-75
2023/06/27 09:10:10;;;;;;;5.55;2.10;;;;;;;22.66;46.10;101897.91;5068649;28;20115;-74
2023/06/27 09:12:37;;;;;;;6.40;1.67;;;;;;;22.64;45.80;101903.06;5071108;28;20024;-73
2023/06/27 09:15:03;;;;;;;8.27;2.03;;;;;;;22.53;45.97;101902.38;5052438;28;20025;-72
2023/06/27 09:17:29;;;;;;;7.15;2.15;;;;;;;22.53;45.44;101901.53;5060674;28;20033;-75
2023/06/27 09:19:54;;;;;;;4.60;1.63;;;;;;;22.47;45.30;101903.59;5056527;28;20616;-74
2023/06/27 09:22:20;;;;;;;4.90;1.55;;;;;;;22.55;45.95;101902.06;5063184;28;20509;-72
2023/06/27 09:24:46;;;;;;;4.18;1.50;;;;;;;22.53;45.66;101905.19;5056392;28;20033;-74
2023/06/27 09:27:31;;;;;;;3.72;1.55;;;;;;;22.56;46.10;101898.09;5062134;28;20035;-73
2023/06/27 09:30:03;;;;;;;5.10;1.90;;;;;;;22.49;45.42;101901.31;5058640;28;20029;-74
2023/06/27 09:32:29;;;;;;;7.53;1.83;;;;;;;22.50;45.52;101899.31;5055643;28;20081;-72
2023/06/27 09:34:55;;;;;;;3.42;1.52;;;;;;;22.58;44.26;101907.09;5048370;28;20029;-76
2023/06/27 09:37:27;;;;;;;3.88;1.48;;;;;;;22.66;43.15;101900.72;5070105;28;20043;-73
2023/06/27 09:39:53;;;;;;;;;;;;;;;22.81;44.73;101898.78;5071502;28;20495;-72
2023/06/27 09:42:18;;;;;;;4.68;1.40;;;;;;;22.97;43.20;101908.72;5074299;28;19927;-75
2023/06/27 09:44:43;;;;;;;2.75;1.60;;;;;;;23.14;43.29;101899.59;5077720;28;20054;-72
2023/06/27 09:47:10;;;;;;;4.43;1.50;;;;;;;23.13;43.15;101900.78;5074038;28;20039;-74
2023/06/27 09:49:38;;;;;;;2.78;1.20;;;;;;;23.14;43.19;101913.75;5065475;28;20083;-76
2023/06/27 09:52:04;;;;;;;3.67;1.20;;;;;;;23.25;43.53;101918.91;5070560;28;20028;-72
2023/06/27 09:54:29;;;;;;;5.15;1.40;;;;;;;23.23;42.12;101914.75;5070660;28;20027;-74
2023/06/27 09:56:56;;;;;;;2.97;1.45;;;;;;;23.24;41.97;101914.41;5074267;28;20029;-75
2023/06/27 09:59:25;;;;;;;3.60;1.38;;;;;;;23.32;42.27;101921.34;5077877;28;20036;-75
2023/06/27 10:01:52;;;;;;;6.72;1.33;;;;;;;23.27;39.77;101907.28;5070492;28;20115;-74
2023/06/27 10:04:18;;;;;;;5.50;1.23;;;;;;;23.30;41.05;101912.31;5069868;28;20032;-74
2023/06/27 10:06:43;;;;;;;3.22;1.10;;;;;;;23.34;39.79;101921.03;5062104;28;20029;-72
2023/06/27 10:09:08;;;;;;;4.25;1.40;;;;;;;23.37;40.21;101912.75;5063887;28;20036;-76
2023/06/27 10:11:35;;;;;;;3.00;0.90;;;;;;;23.44;39.96;101906.66;5077529;28;20031;-75
2023/06/27 10:14:01;;;;;;;2.85;1.20;;;;;;;23.48;39.18;101904.88;5072713;28;20519;-77
2023/06/27 10:16:26;;;;;;;4.40;1.13;;;;;;;23.60;39.07;101901.50;5079997;28;20048;-75
2023/06/27 10:18:53;;;;;;;3.92;1.27;;;;;;;23.73;38.92;101907.19;5075298;28;20032;-75
2023/06/27 10:21:19;;;;;;;3.25;1.10;;;;;;;23.85;40.58;101912.31;5067847;28;20094;-72
2023/06/27 10:23:50;;;;;;;4.35;1.20;;;;;;;23.77;38.43;101911.06;5067393;28;20036;-74
2023/06/27 10:26:19;;;;;;;2.53;1.10;;;;;;;23.71;38.30;101915.19;5069115;28;20378;-74
2023/06/27 10:28:50;;;;;;;3.92;1.02;;;;;;;23.75;39.99;101909.72;5066109;28;20293;-77
2023/06/27 10:31:45;;;;;;;4.65;1.15;;;;;;;23.73;39.54;101910.03;5070896;28;20591;-63
2023/06/27 10:34:37;;;;;;;2.88;1.20;;;;;;;23.77;39.93;101907.41;5070562;28;20032;-63
2023/06/27 10:37:03;;;;;;;4.20;1.70;;;;;;;23.67;37.75;101914.13;5072623;28;20032;-65
2023/06/27 10:39:30;;;;;;;4.10;1.48;;;;;;;23.61;37.54;101906.84;5073604;28;20101;-67
2023/06/27 10:42:05;;;;;;;3.53;1.05;;;;;;;23.52;38.02;101920.09;5066871;28;20032;-74
2023/06/27 10:44:31;;;;;;;6.10;1.20;;;;;;;23.50;37.03;101905.38;5065997;28;20032;-75
2023/06/27 10:47:15;;;;;;;5.60;1.20;;;;;;;23.45;38.10;101902.66;5067218;28;20054;-76
2023/06/27 10:49:40;;;;;;;4.18;1.13;;;;;;;23.37;37.78;101911.91;5070066;28;20032;-76
2023/06/27 10:52:05;;;;;;;4.90;1.00;;;;;;;23.32;37.57;101907.19;5072003;28;20480;-75
2023/06/27 10:54:31;;;;;;;2.83;0.95;;;;;;;23.31;37.27;101904.69;5073363;28;20105;-76
2023/06/27 10:56:59;;;;;;;2.70;1.17;;;;;;;23.27;36.82;101907.28;5073222;28;20557;-75
2023/06/27 10:59:25;;;;;;;1.88;0.85;;;;;;;23.25;36.64;101903.91;5073040;28;20361;-76
2023/06/27 11:01:52;;;;;;;4.15;1.10;;;;;;;23.34;36.04;101892.69;5072128;28;20043;-75
2023/06/27 11:04:25;;;;;;;2.80;1.08;;;;;;;23.46;36.49;101899.53;5071102;28;20031;-75
2023/06/27 11:06:57;;;;;;;2.30;1.00;;;;;;;23.55;36.15;101896.78;5069604;28;20032;-75
2023/06/27 11:09:23;;;;;;;4.22;1.10;;;;;;;23.62;35.82;101905.72;5070863;28;20108;-75
2023/06/27 11:12:15;;;;;;;3.72;1.00;;;;;;;23.73;36.76;101910.03;5065104;28;20047;-75
2023/06/27 11:14:43;;;;;;;2.33;0.80;;;;;;;23.81;34.81;101901.94;5048990;28;20052;-75
2023/06/27 11:17:10;;;;;;;2.97;1.00;;;;;;;23.91;34.50;101904.56;5061585;28;20051;-75
2023/06/27 11:19:38;;;;;;;5.68;1.20;;;;;;;23.98;34.91;101887.94;5070380;28;20036;-75